sensor_id;sensor_type;location;lat;lon;timestamp;temperature;humidity
61255;DHT22;47128;47.530;8.584;2023-05-19T00:00:04;13.00;95.10
61255;DHT22;47128;47.530;8.584;2023-05-19T00:02:31;12.90;95.40
61255;DHT22;47128;47.530;8.584;2023-05-19T00:05:00;12.90;95.00
61255;DHT22;47128;47.530;8.584;2023-05-19T00:07:27;12.90;95.90
61255;DHT22;47128;47.530;8.584;2023-05-19T00:09:54;12.80;96.10
61255;DHT22;47128;47.530;8.584;2023-05-19T00:12:20;12.80;95.80
61255;DHT22;47128;47.530;8.584;2023-05-19T00:14:45;12.70;96.10
61255;DHT22;47128;47.530;8.584;2023-05-19T00:17:11;12.70;95.80
61255;DHT22;47128;47.530;8.584;2023-05-19T00:19:36;12.80;95.90
61255;DHT22;47128;47.530;8.584;2023-05-19T00:22:03;12.80;96.00
61255;DHT22;47128;47.530;8.584;2023-05-19T00:24:29;12.70;96.50
61255;DHT22;47128;47.530;8.584;2023-05-19T00:26:55;12.60;97.50
61255;DHT22;47128;47.530;8.584;2023-05-19T00:29:20;12.70;97.20
61255;DHT22;47128;47.530;8.584;2023-05-19T00:31:46;12.70;96.60
61255;DHT22;47128;47.530;8.584;2023-05-19T00:34:11;12.70;96.10
61255;DHT22;47128;47.530;8.584;2023-05-19T00:36:37;12.70;95.70
61255;DHT22;47128;47.530;8.584;2023-05-19T00:39:02;12.80;95.80
61255;DHT22;47128;47.530;8.584;2023-05-19T00:41:28;12.80;95.80
61255;DHT22;47128;47.530;8.584;2023-05-19T00:43:53;12.80;95.90
61255;DHT22;47128;47.530;8.584;2023-05-19T00:46:19;12.80;95.60
61255;DHT22;47128;47.530;8.584;2023-05-19T00:48:44;12.80;96.10
61255;DHT22;47128;47.530;8.584;2023-05-19T00:51:10;12.80;96.20
61255;DHT22;47128;47.530;8.584;2023-05-19T00:53:38;12.70;95.80
61255;DHT22;47128;47.530;8.584;2023-05-19T00:56:04;12.70;96.00
61255;DHT22;47128;47.530;8.584;2023-05-19T00:58:30;12.70;95.80
61255;DHT22;47128;47.530;8.584;2023-05-19T01:00:57;12.70;97.00
61255;DHT22;47128;47.530;8.584;2023-05-19T01:03:31;12.60;97.20
61255;DHT22;47128;47.530;8.584;2023-05-19T01:05:58;12.50;97.20
61255;DHT22;47128;47.530;8.584;2023-05-19T01:08:32;12.50;96.70
61255;DHT22;47128;47.530;8.584;2023-05-19T01:10:58;12.60;96.60
61255;DHT22;47128;47.530;8.584;2023-05-19T01:13:24;12.60;96.20
61255;DHT22;47128;47.530;8.584;2023-05-19T01:15:55;12.60;96.20
61255;DHT22;47128;47.530;8.584;2023-05-19T01:18:24;12.70;97.20
61255;DHT22;47128;47.530;8.584;2023-05-19T01:20:50;12.60;95.80
61255;DHT22;47128;47.530;8.584;2023-05-19T01:23:32;12.60;95.90
61255;DHT22;47128;47.530;8.584;2023-05-19T01:26:03;12.60;95.80
61255;DHT22;47128;47.530;8.584;2023-05-19T01:28:47;12.50;95.70
61255;DHT22;47128;47.530;8.584;2023-05-19T01:31:17;12.60;95.70
61255;DHT22;47128;47.530;8.584;2023-05-19T01:33:45;12.60;95.60
61255;DHT22;47128;47.530;8.584;2023-05-19T01:36:11;12.60;95.80
61255;DHT22;47128;47.530;8.584;2023-05-19T01:38:38;12.60;95.80
61255;DHT22;47128;47.530;8.584;2023-05-19T01:41:05;12.60;95.50
61255;DHT22;47128;47.530;8.584;2023-05-19T01:43:31;12.60;95.60
61255;DHT22;47128;47.530;8.584;2023-05-19T01:45:57;12.60;95.50
61255;DHT22;47128;47.530;8.584;2023-05-19T01:48:23;12.60;95.50
61255;DHT22;47128;47.530;8.584;2023-05-19T01:50:49;12.60;95.60
61255;DHT22;47128;47.530;8.584;2023-05-19T01:53:14;12.60;95.60
61255;DHT22;47128;47.530;8.584;2023-05-19T01:55:44;12.60;95.50
61255;DHT22;47128;47.530;8.584;2023-05-19T01:58:58;12.50;95.70
61255;DHT22;47128;47.530;8.584;2023-05-19T02:11:26;12.30;96.70
61255;DHT22;47128;47.530;8.584;2023-05-19T02:13:56;12.30;96.50
61255;DHT22;47128;47.530;8.584;2023-05-19T02:16:26;12.30;96.40
61255;DHT22;47128;47.530;8.584;2023-05-19T02:18:52;12.20;97.10
61255;DHT22;47128;47.530;8.584;2023-05-19T02:21:18;12.30;96.90
61255;DHT22;47128;47.530;8.584;2023-05-19T02:23:43;12.40;96.70
61255;DHT22;47128;47.530;8.584;2023-05-19T02:26:09;12.40;96.70
61255;DHT22;47128;47.530;8.584;2023-05-19T02:28:35;12.30;97.00
61255;DHT22;47128;47.530;8.584;2023-05-19T02:31:01;12.30;97.00
61255;DHT22;47128;47.530;8.584;2023-05-19T02:33:27;12.30;97.00
61255;DHT22;47128;47.530;8.584;2023-05-19T02:35:55;12.30;97.50
61255;DHT22;47128;47.530;8.584;2023-05-19T02:38:20;12.20;97.50
61255;DHT22;47128;47.530;8.584;2023-05-19T02:40:46;12.30;97.00
61255;DHT22;47128;47.530;8.584;2023-05-19T02:43:12;12.20;96.80
61255;DHT22;47128;47.530;8.584;2023-05-19T02:45:37;12.30;96.70
61255;DHT22;47128;47.530;8.584;2023-05-19T02:48:03;12.30;96.50
61255;DHT22;47128;47.530;8.584;2023-05-19T02:50:28;12.30;97.40
61255;DHT22;47128;47.530;8.584;2023-05-19T02:52:54;12.30;97.20
61255;DHT22;47128;47.530;8.584;2023-05-19T02:55:19;12.30;97.80
61255;DHT22;47128;47.530;8.584;2023-05-19T02:57:45;12.20;97.40
61255;DHT22;47128;47.530;8.584;2023-05-19T03:00:11;12.30;97.30
61255;DHT22;47128;47.530;8.584;2023-05-19T03:02:36;12.30;97.00
61255;DHT22;47128;47.530;8.584;2023-05-19T03:05:02;12.30;97.20
61255;DHT22;47128;47.530;8.584;2023-05-19T03:07:28;12.20;97.00
61255;DHT22;47128;47.530;8.584;2023-05-19T03:09:53;12.20;96.70
61255;DHT22;47128;47.530;8.584;2023-05-19T03:12:19;12.20;96.90
61255;DHT22;47128;47.530;8.584;2023-05-19T03:14:44;12.20;96.70
61255;DHT22;47128;47.530;8.584;2023-05-19T03:17:10;12.10;96.80
61255;DHT22;47128;47.530;8.584;2023-05-19T03:19:36;12.10;96.70
61255;DHT22;47128;47.530;8.584;2023-05-19T03:22:02;12.10;96.70
61255;DHT22;47128;47.530;8.584;2023-05-19T03:24:27;12.10;96.70
61255;DHT22;47128;47.530;8.584;2023-05-19T03:26:53;12.10;96.70
61255;DHT22;47128;47.530;8.584;2023-05-19T03:29:18;12.10;97.00
61255;DHT22;47128;47.530;8.584;2023-05-19T03:31:44;12.00;97.10
61255;DHT22;47128;47.530;8.584;2023-05-19T03:34:09;12.00;97.10
61255;DHT22;47128;47.530;8.584;2023-05-19T03:36:35;12.00;96.90
61255;DHT22;47128;47.530;8.584;2023-05-19T03:39:04;12.00;97.10
61255;DHT22;47128;47.530;8.584;2023-05-19T03:41:30;12.00;97.10
61255;DHT22;47128;47.530;8.584;2023-05-19T03:43:55;12.00;97.10
61255;DHT22;47128;47.530;8.584;2023-05-19T03:46:21;11.90;97.40
61255;DHT22;47128;47.530;8.584;2023-05-19T03:48:46;11.90;97.60
61255;DHT22;47128;47.530;8.584;2023-05-19T03:51:12;11.90;97.50
61255;DHT22;47128;47.530;8.584;2023-05-19T03:53:37;11.80;97.40
61255;DHT22;47128;47.530;8.584;2023-05-19T03:56:03;11.80;97.50
61255;DHT22;47128;47.530;8.584;2023-05-19T03:58:29;11.80;97.70
61255;DHT22;47128;47.530;8.584;2023-05-19T04:00:55;11.80;97.90
61255;DHT22;47128;47.530;8.584;2023-05-19T04:03:20;11.70;97.90
61255;DHT22;47128;47.530;8.584;2023-05-19T04:05:47;11.80;98.00
61255;DHT22;47128;47.530;8.584;2023-05-19T04:08:13;11.80;97.90
61255;DHT22;47128;47.530;8.584;2023-05-19T04:10:38;11.70;97.90
61255;DHT22;47128;47.530;8.584;2023-05-19T04:13:04;11.70;98.10
61255;DHT22;47128;47.530;8.584;2023-05-19T04:15:30;11.70;98.00
61255;DHT22;47128;47.530;8.584;2023-05-19T04:17:55;11.60;98.20
61255;DHT22;47128;47.530;8.584;2023-05-19T04:20:22;11.70;98.40
61255;DHT22;47128;47.530;8.584;2023-05-19T04:22:47;11.70;98.20
61255;DHT22;47128;47.530;8.584;2023-05-19T04:25:13;11.80;98.20
61255;DHT22;47128;47.530;8.584;2023-05-19T04:27:38;11.70;98.30
61255;DHT22;47128;47.530;8.584;2023-05-19T04:30:04;11.80;98.40
61255;DHT22;47128;47.530;8.584;2023-05-19T04:32:30;11.80;98.90
61255;DHT22;47128;47.530;8.584;2023-05-19T04:34:56;11.80;98.80
61255;DHT22;47128;47.530;8.584;2023-05-19T04:37:23;11.80;98.60
61255;DHT22;47128;47.530;8.584;2023-05-19T04:39:50;11.80;98.80
61255;DHT22;47128;47.530;8.584;2023-05-19T04:42:16;11.80;98.60
61255;DHT22;47128;47.530;8.584;2023-05-19T04:44:44;11.80;98.60
61255;DHT22;47128;47.530;8.584;2023-05-19T04:47:09;11.80;98.40
61255;DHT22;47128;47.530;8.584;2023-05-19T04:49:35;11.80;98.80
61255;DHT22;47128;47.530;8.584;2023-05-19T04:52:07;11.90;98.60
61255;DHT22;47128;47.530;8.584;2023-05-19T04:54:35;11.90;98.30
61255;DHT22;47128;47.530;8.584;2023-05-19T04:57:01;11.80;98.40
61255;DHT22;47128;47.530;8.584;2023-05-19T04:59:26;11.90;98.10
61255;DHT22;47128;47.530;8.584;2023-05-19T05:01:52;11.90;98.40
61255;DHT22;47128;47.530;8.584;2023-05-19T05:04:18;11.80;98.00
61255;DHT22;47128;47.530;8.584;2023-05-19T05:06:44;11.80;98.30
61255;DHT22;47128;47.530;8.584;2023-05-19T05:09:13;11.90;98.60
61255;DHT22;47128;47.530;8.584;2023-05-19T05:11:38;11.90;98.60
61255;DHT22;47128;47.530;8.584;2023-05-19T05:14:04;12.00;98.30
61255;DHT22;47128;47.530;8.584;2023-05-19T05:16:30;12.00;98.00
61255;DHT22;47128;47.530;8.584;2023-05-19T05:21:37;12.10;97.90
61255;DHT22;47128;47.530;8.584;2023-05-19T05:24:02;12.10;98.00
61255;DHT22;47128;47.530;8.584;2023-05-19T05:26:29;12.30;97.50
61255;DHT22;47128;47.530;8.584;2023-05-19T05:35:01;12.40;96.90
61255;DHT22;47128;47.530;8.584;2023-05-19T05:37:26;12.50;97.00
61255;DHT22;47128;47.530;8.584;2023-05-19T05:42:55;12.50;96.80
61255;DHT22;47128;47.530;8.584;2023-05-19T05:45:23;12.50;96.60
61255;DHT22;47128;47.530;8.584;2023-05-19T05:47:50;12.50;96.70
61255;DHT22;47128;47.530;8.584;2023-05-19T05:50:16;12.50;96.70
61255;DHT22;47128;47.530;8.584;2023-05-19T05:52:43;12.50;96.70
61255;DHT22;47128;47.530;8.584;2023-05-19T05:55:10;12.50;97.20
61255;DHT22;47128;47.530;8.584;2023-05-19T05:57:36;12.30;97.10
61255;DHT22;47128;47.530;8.584;2023-05-19T06:00:02;12.30;97.00
61255;DHT22;47128;47.530;8.584;2023-05-19T06:05:36;12.20;97.50
61255;DHT22;47128;47.530;8.584;2023-05-19T06:08:02;12.20;97.20
61255;DHT22;47128;47.530;8.584;2023-05-19T06:10:30;12.20;97.50
61255;DHT22;47128;47.530;8.584;2023-05-19T06:13:10;12.30;97.50
61255;DHT22;47128;47.530;8.584;2023-05-19T06:18:39;12.40;97.40
61255;DHT22;47128;47.530;8.584;2023-05-19T06:24:08;12.40;97.60
61255;DHT22;47128;47.530;8.584;2023-05-19T06:26:33;12.40;97.70
61255;DHT22;47128;47.530;8.584;2023-05-19T06:32:02;12.40;97.40
61255;DHT22;47128;47.530;8.584;2023-05-19T06:34:27;12.40;97.20
61255;DHT22;47128;47.530;8.584;2023-05-19T06:36:53;12.30;97.40
61255;DHT22;47128;47.530;8.584;2023-05-19T06:39:18;12.20;97.40
61255;DHT22;47128;47.530;8.584;2023-05-19T06:41:43;12.20;97.70
61255;DHT22;47128;47.530;8.584;2023-05-19T06:44:09;12.30;97.90
61255;DHT22;47128;47.530;8.584;2023-05-19T06:49:22;12.30;97.90
61255;DHT22;47128;47.530;8.584;2023-05-19T06:51:48;12.30;98.30
61255;DHT22;47128;47.530;8.584;2023-05-19T06:54:13;12.30;98.50
61255;DHT22;47128;47.530;8.584;2023-05-19T06:56:40;12.30;98.50
61255;DHT22;47128;47.530;8.584;2023-05-19T06:59:24;12.30;98.60
61255;DHT22;47128;47.530;8.584;2023-05-19T07:04:53;12.30;98.00
61255;DHT22;47128;47.530;8.584;2023-05-19T07:07:18;12.20;98.10
61255;DHT22;47128;47.530;8.584;2023-05-19T07:09:44;12.30;98.30
61255;DHT22;47128;47.530;8.584;2023-05-19T07:12:10;12.20;98.20
61255;DHT22;47128;47.530;8.584;2023-05-19T07:14:35;12.20;98.20
61255;DHT22;47128;47.530;8.584;2023-05-19T07:17:03;12.10;98.30
61255;DHT22;47128;47.530;8.584;2023-05-19T07:19:28;12.20;98.30
61255;DHT22;47128;47.530;8.584;2023-05-19T07:21:58;12.10;98.50
61255;DHT22;47128;47.530;8.584;2023-05-19T07:27:13;12.30;98.20
61255;DHT22;47128;47.530;8.584;2023-05-19T07:29:39;12.30;98.30
61255;DHT22;47128;47.530;8.584;2023-05-19T07:32:05;12.30;98.00
61255;DHT22;47128;47.530;8.584;2023-05-19T07:37:38;12.30;97.90
61255;DHT22;47128;47.530;8.584;2023-05-19T07:40:04;12.30;98.20
61255;DHT22;47128;47.530;8.584;2023-05-19T07:42:34;12.40;98.10
61255;DHT22;47128;47.530;8.584;2023-05-19T07:48:03;12.50;98.20
61255;DHT22;47128;47.530;8.584;2023-05-19T07:50:29;12.50;98.20
61255;DHT22;47128;47.530;8.584;2023-05-19T07:52:55;12.50;97.90
61255;DHT22;47128;47.530;8.584;2023-05-19T07:55:21;12.60;97.80
61255;DHT22;47128;47.530;8.584;2023-05-19T07:57:52;12.70;97.50
61255;DHT22;47128;47.530;8.584;2023-05-19T08:00:18;12.80;97.70
61255;DHT22;47128;47.530;8.584;2023-05-19T08:02:43;12.80;97.60
61255;DHT22;47128;47.530;8.584;2023-05-19T08:05:09;12.80;97.50
61255;DHT22;47128;47.530;8.584;2023-05-19T08:07:36;12.80;97.90
61255;DHT22;47128;47.530;8.584;2023-05-19T08:10:02;12.80;97.70
61255;DHT22;47128;47.530;8.584;2023-05-19T08:15:30;13.00;97.40
61255;DHT22;47128;47.530;8.584;2023-05-19T08:17:56;13.00;97.30
61255;DHT22;47128;47.530;8.584;2023-05-19T08:20:22;13.00;97.50
61255;DHT22;47128;47.530;8.584;2023-05-19T08:22:48;13.00;97.50
61255;DHT22;47128;47.530;8.584;2023-05-19T08:25:14;13.10;97.50
61255;DHT22;47128;47.530;8.584;2023-05-19T08:27:39;13.20;97.20
61255;DHT22;47128;47.530;8.584;2023-05-19T08:30:05;13.20;97.20
61255;DHT22;47128;47.530;8.584;2023-05-19T08:32:31;13.30;96.80
61255;DHT22;47128;47.530;8.584;2023-05-19T08:34:56;13.30;96.60
61255;DHT22;47128;47.530;8.584;2023-05-19T08:37:22;13.50;96.30
61255;DHT22;47128;47.530;8.584;2023-05-19T08:39:47;13.60;96.10
61255;DHT22;47128;47.530;8.584;2023-05-19T08:45:16;13.40;96.40
61255;DHT22;47128;47.530;8.584;2023-05-19T08:51:31;13.20;96.00
61255;DHT22;47128;47.530;8.584;2023-05-19T08:53:33;13.30;96.10
61255;DHT22;47128;47.530;8.584;2023-05-19T08:56:03;13.40;96.10
61255;DHT22;47128;47.530;8.584;2023-05-19T08:58:34;13.40;96.20
61255;DHT22;47128;47.530;8.584;2023-05-19T09:01:00;13.30;96.50
61255;DHT22;47128;47.530;8.584;2023-05-19T09:03:27;13.20;96.40
61255;DHT22;47128;47.530;8.584;2023-05-19T09:05:54;13.20;96.30
61255;DHT22;47128;47.530;8.584;2023-05-19T09:08:20;13.30;96.10
61255;DHT22;47128;47.530;8.584;2023-05-19T09:10:45;13.40;95.90
61255;DHT22;47128;47.530;8.584;2023-05-19T09:13:11;13.50;96.10
61255;DHT22;47128;47.530;8.584;2023-05-19T09:15:37;13.50;95.90
61255;DHT22;47128;47.530;8.584;2023-05-19T09:18:10;13.50;95.90
61255;DHT22;47128;47.530;8.584;2023-05-19T09:23:39;13.70;95.70
61255;DHT22;47128;47.530;8.584;2023-05-19T09:26:04;13.50;96.20
61255;DHT22;47128;47.530;8.584;2023-05-19T09:28:33;13.60;95.90
61255;DHT22;47128;47.530;8.584;2023-05-19T09:36:30;13.80;95.50
61255;DHT22;47128;47.530;8.584;2023-05-19T09:39:14;13.80;95.50
61255;DHT22;47128;47.530;8.584;2023-05-19T09:41:39;13.90;95.60
61255;DHT22;47128;47.530;8.584;2023-05-19T09:47:08;13.90;95.60
61255;DHT22;47128;47.530;8.584;2023-05-19T09:52:37;13.90;95.20
61255;DHT22;47128;47.530;8.584;2023-05-19T09:57:54;14.00;95.30
61255;DHT22;47128;47.530;8.584;2023-05-19T10:00:24;14.10;95.10
61255;DHT22;47128;47.530;8.584;2023-05-19T10:02:51;14.20;95.40
61255;DHT22;47128;47.530;8.584;2023-05-19T10:05:17;14.20;95.50
61255;DHT22;47128;47.530;8.584;2023-05-19T10:07:50;14.20;95.40
61255;DHT22;47128;47.530;8.584;2023-05-19T10:10:16;14.30;95.50
61255;DHT22;47128;47.530;8.584;2023-05-19T10:15:47;14.20;95.30
61255;DHT22;47128;47.530;8.584;2023-05-19T10:18:14;14.20;95.40
61255;DHT22;47128;47.530;8.584;2023-05-19T10:20:40;14.30;95.30
61255;DHT22;47128;47.530;8.584;2023-05-19T10:23:06;14.40;95.50
61255;DHT22;47128;47.530;8.584;2023-05-19T10:28:21;14.50;95.40
61255;DHT22;47128;47.530;8.584;2023-05-19T10:39:03;14.70;94.80
61255;DHT22;47128;47.530;8.584;2023-05-19T10:44:08;14.90;94.30
61255;DHT22;47128;47.530;8.584;2023-05-19T10:46:36;14.90;94.10
61255;DHT22;47128;47.530;8.584;2023-05-19T10:49:05;14.80;94.60
61255;DHT22;47128;47.530;8.584;2023-05-19T10:51:32;14.60;94.90
61255;DHT22;47128;47.530;8.584;2023-05-19T10:54:00;14.70;95.10
61255;DHT22;47128;47.530;8.584;2023-05-19T10:56:31;14.90;94.60
61255;DHT22;47128;47.530;8.584;2023-05-19T10:58:59;15.20;94.30
61255;DHT22;47128;47.530;8.584;2023-05-19T11:01:29;15.10;94.20
61255;DHT22;47128;47.530;8.584;2023-05-19T11:03:55;15.10;94.80
61255;DHT22;47128;47.530;8.584;2023-05-19T11:06:24;15.20;94.40
61255;DHT22;47128;47.530;8.584;2023-05-19T11:09:00;15.40;94.20
61255;DHT22;47128;47.530;8.584;2023-05-19T11:14:11;15.90;93.60
61255;DHT22;47128;47.530;8.584;2023-05-19T11:16:39;16.00;93.40
61255;DHT22;47128;47.530;8.584;2023-05-19T11:25:10;16.00;93.60
61255;DHT22;47128;47.530;8.584;2023-05-19T11:27:35;16.20;93.40
61255;DHT22;47128;47.530;8.584;2023-05-19T11:32:33;16.80;92.70
61255;DHT22;47128;47.530;8.584;2023-05-19T11:34:59;16.70;92.50
61255;DHT22;47128;47.530;8.584;2023-05-19T11:37:25;16.60;92.90
61255;DHT22;47128;47.530;8.584;2023-05-19T11:39:51;16.40;92.90
61255;DHT22;47128;47.530;8.584;2023-05-19T11:42:17;16.60;93.10
61255;DHT22;47128;47.530;8.584;2023-05-19T11:44:43;16.80;92.60
61255;DHT22;47128;47.530;8.584;2023-05-19T11:47:15;16.80;92.40
61255;DHT22;47128;47.530;8.584;2023-05-19T11:49:46;16.80;92.60
61255;DHT22;47128;47.530;8.584;2023-05-19T11:52:12;16.70;92.40
61255;DHT22;47128;47.530;8.584;2023-05-19T11:54:38;16.60;92.70
61255;DHT22;47128;47.530;8.584;2023-05-19T11:57:07;16.60;92.70
61255;DHT22;47128;47.530;8.584;2023-05-19T11:59:33;16.70;92.90
61255;DHT22;47128;47.530;8.584;2023-05-19T12:02:00;16.60;92.50
61255;DHT22;47128;47.530;8.584;2023-05-19T12:04:26;16.60;92.80
61255;DHT22;47128;47.530;8.584;2023-05-19T12:06:51;16.40;92.70
61255;DHT22;47128;47.530;8.584;2023-05-19T12:12:20;16.30;93.20
61255;DHT22;47128;47.530;8.584;2023-05-19T12:14:47;16.20;93.20
61255;DHT22;47128;47.530;8.584;2023-05-19T12:17:14;16.30;93.20
61255;DHT22;47128;47.530;8.584;2023-05-19T12:19:45;16.70;93.10
61255;DHT22;47128;47.530;8.584;2023-05-19T12:22:11;16.90;92.80
61255;DHT22;47128;47.530;8.584;2023-05-19T12:24:37;16.90;92.60
61255;DHT22;47128;47.530;8.584;2023-05-19T12:27:03;16.70;92.50
61255;DHT22;47128;47.530;8.584;2023-05-19T12:29:30;16.80;92.50
61255;DHT22;47128;47.530;8.584;2023-05-19T12:31:55;16.70;92.70
61255;DHT22;47128;47.530;8.584;2023-05-19T12:34:22;16.70;92.90
61255;DHT22;47128;47.530;8.584;2023-05-19T12:36:48;16.50;93.10
61255;DHT22;47128;47.530;8.584;2023-05-19T12:39:14;16.40;93.40
61255;DHT22;47128;47.530;8.584;2023-05-19T12:41:43;16.30;93.80
61255;DHT22;47128;47.530;8.584;2023-05-19T12:44:15;16.20;93.80
61255;DHT22;47128;47.530;8.584;2023-05-19T12:46:42;16.20;93.60
61255;DHT22;47128;47.530;8.584;2023-05-19T12:52:12;16.30;93.60
61255;DHT22;47128;47.530;8.584;2023-05-19T12:54:37;16.20;93.60
61255;DHT22;47128;47.530;8.584;2023-05-19T12:57:04;16.40;93.50
61255;DHT22;47128;47.530;8.584;2023-05-19T12:59:30;16.50;93.60
61255;DHT22;47128;47.530;8.584;2023-05-19T13:01:58;16.50;93.60
61255;DHT22;47128;47.530;8.584;2023-05-19T13:04:24;16.40;93.40
61255;DHT22;47128;47.530;8.584;2023-05-19T13:06:52;16.50;93.30
61255;DHT22;47128;47.530;8.584;2023-05-19T13:09:18;16.70;93.40
61255;DHT22;47128;47.530;8.584;2023-05-19T13:14:46;17.10;93.20
61255;DHT22;47128;47.530;8.584;2023-05-19T13:17:12;16.90;92.90
61255;DHT22;47128;47.530;8.584;2023-05-19T13:19:38;16.80;93.00
61255;DHT22;47128;47.530;8.584;2023-05-19T13:22:03;16.80;92.70
61255;DHT22;47128;47.530;8.584;2023-05-19T13:24:29;16.70;93.20
61255;DHT22;47128;47.530;8.584;2023-05-19T13:26:55;16.60;93.00
61255;DHT22;47128;47.530;8.584;2023-05-19T13:29:21;16.60;92.80
61255;DHT22;47128;47.530;8.584;2023-05-19T13:31:47;16.70;92.80
61255;DHT22;47128;47.530;8.584;2023-05-19T13:34:13;16.60;93.00
61255;DHT22;47128;47.530;8.584;2023-05-19T13:36:39;16.60;92.90
61255;DHT22;47128;47.530;8.584;2023-05-19T13:39:05;16.50;93.30
61255;DHT22;47128;47.530;8.584;2023-05-19T13:41:31;16.40;93.50
61255;DHT22;47128;47.530;8.584;2023-05-19T13:43:57;16.30;93.30
61255;DHT22;47128;47.530;8.584;2023-05-19T13:46:25;16.30;93.40
61255;DHT22;47128;47.530;8.584;2023-05-19T13:48:51;16.30;93.00
61255;DHT22;47128;47.530;8.584;2023-05-19T13:51:17;16.40;93.10
61255;DHT22;47128;47.530;8.584;2023-05-19T13:53:42;16.40;93.00
61255;DHT22;47128;47.530;8.584;2023-05-19T13:56:08;16.40;93.20
61255;DHT22;47128;47.530;8.584;2023-05-19T13:58:33;16.30;93.20
61255;DHT22;47128;47.530;8.584;2023-05-19T14:00:59;16.30;92.90
61255;DHT22;47128;47.530;8.584;2023-05-19T14:03:25;16.30;93.00
61255;DHT22;47128;47.530;8.584;2023-05-19T14:05:51;16.20;92.80
61255;DHT22;47128;47.530;8.584;2023-05-19T14:08:17;16.20;92.90
61255;DHT22;47128;47.530;8.584;2023-05-19T14:10:46;16.10;92.90
61255;DHT22;47128;47.530;8.584;2023-05-19T14:13:12;16.10;93.10
61255;DHT22;47128;47.530;8.584;2023-05-19T14:15:38;16.10;93.20
61255;DHT22;47128;47.530;8.584;2023-05-19T14:18:04;16.10;93.30
61255;DHT22;47128;47.530;8.584;2023-05-19T14:20:30;16.10;93.10
61255;DHT22;47128;47.530;8.584;2023-05-19T14:22:56;16.20;93.30
61255;DHT22;47128;47.530;8.584;2023-05-19T14:25:22;16.20;92.70
61255;DHT22;47128;47.530;8.584;2023-05-19T14:27:48;16.20;92.90
61255;DHT22;47128;47.530;8.584;2023-05-19T14:30:14;16.10;93.10
61255;DHT22;47128;47.530;8.584;2023-05-19T14:32:39;16.20;93.10
61255;DHT22;47128;47.530;8.584;2023-05-19T14:35:05;16.20;93.10
61255;DHT22;47128;47.530;8.584;2023-05-19T14:43:25;16.50;92.60
61255;DHT22;47128;47.530;8.584;2023-05-19T14:45:51;16.50;92.40
61255;DHT22;47128;47.530;8.584;2023-05-19T14:48:16;16.50;92.40
61255;DHT22;47128;47.530;8.584;2023-05-19T14:50:42;16.50;92.80
61255;DHT22;47128;47.530;8.584;2023-05-19T14:55:41;16.50;92.50
61255;DHT22;47128;47.530;8.584;2023-05-19T14:58:06;16.40;92.70
61255;DHT22;47128;47.530;8.584;2023-05-19T15:00:32;16.40;92.80
61255;DHT22;47128;47.530;8.584;2023-05-19T15:02:58;16.40;92.60
61255;DHT22;47128;47.530;8.584;2023-05-19T15:05:23;16.20;92.70
61255;DHT22;47128;47.530;8.584;2023-05-19T15:07:49;16.20;92.90
61255;DHT22;47128;47.530;8.584;2023-05-19T15:10:15;16.20;93.10
61255;DHT22;47128;47.530;8.584;2023-05-19T15:12:42;16.10;92.90
61255;DHT22;47128;47.530;8.584;2023-05-19T15:18:11;16.10;92.80
61255;DHT22;47128;47.530;8.584;2023-05-19T15:23:40;15.90;93.00
61255;DHT22;47128;47.530;8.584;2023-05-19T15:26:14;15.90;93.10
61255;DHT22;47128;47.530;8.584;2023-05-19T15:28:39;15.90;93.40
61255;DHT22;47128;47.530;8.584;2023-05-19T15:31:08;16.00;93.20
61255;DHT22;47128;47.530;8.584;2023-05-19T15:36:36;16.00;93.20
61255;DHT22;47128;47.530;8.584;2023-05-19T15:39:01;15.90;93.20
61255;DHT22;47128;47.530;8.584;2023-05-19T15:41:27;15.90;93.20
61255;DHT22;47128;47.530;8.584;2023-05-19T15:49:46;15.80;93.30
61255;DHT22;47128;47.530;8.584;2023-05-19T15:52:12;15.80;93.20
61255;DHT22;47128;47.530;8.584;2023-05-19T15:54:37;15.90;93.00
61255;DHT22;47128;47.530;8.584;2023-05-19T15:57:03;15.90;93.10
61255;DHT22;47128;47.530;8.584;2023-05-19T15:59:28;15.80;93.50
61255;DHT22;47128;47.530;8.584;2023-05-19T16:01:54;15.80;93.30
61255;DHT22;47128;47.530;8.584;2023-05-19T16:04:20;15.80;93.20
61255;DHT22;47128;47.530;8.584;2023-05-19T16:06:46;15.90;93.20
61255;DHT22;47128;47.530;8.584;2023-05-19T16:09:11;15.80;93.20
61255;DHT22;47128;47.530;8.584;2023-05-19T16:11:37;15.80;93.00
61255;DHT22;47128;47.530;8.584;2023-05-19T16:14:02;15.90;93.20
61255;DHT22;47128;47.530;8.584;2023-05-19T16:16:28;15.90;93.20
61255;DHT22;47128;47.530;8.584;2023-05-19T16:25:00;15.90;93.30
61255;DHT22;47128;47.530;8.584;2023-05-19T16:27:25;15.90;93.50
61255;DHT22;47128;47.530;8.584;2023-05-19T16:29:51;15.90;93.30
61255;DHT22;47128;47.530;8.584;2023-05-19T16:32:17;16.00;93.40
61255;DHT22;47128;47.530;8.584;2023-05-19T16:34:42;16.00;93.30
61255;DHT22;47128;47.530;8.584;2023-05-19T16:37:08;16.00;93.20
61255;DHT22;47128;47.530;8.584;2023-05-19T16:39:36;16.10;93.20
61255;DHT22;47128;47.530;8.584;2023-05-19T16:42:05;16.10;93.10
61255;DHT22;47128;47.530;8.584;2023-05-19T16:44:30;16.10;93.00
61255;DHT22;47128;47.530;8.584;2023-05-19T16:46:56;16.00;92.80
61255;DHT22;47128;47.530;8.584;2023-05-19T16:49:21;16.00;93.00
61255;DHT22;47128;47.530;8.584;2023-05-19T16:51:47;16.00;93.20
61255;DHT22;47128;47.530;8.584;2023-05-19T16:54:12;15.90;93.20
61255;DHT22;47128;47.530;8.584;2023-05-19T16:56:38;15.90;93.20
61255;DHT22;47128;47.530;8.584;2023-05-19T16:59:03;15.80;93.20
61255;DHT22;47128;47.530;8.584;2023-05-19T17:01:29;15.80;92.80
61255;DHT22;47128;47.530;8.584;2023-05-19T17:03:55;15.80;93.00
61255;DHT22;47128;47.530;8.584;2023-05-19T17:06:21;15.80;93.00
61255;DHT22;47128;47.530;8.584;2023-05-19T17:08:46;15.90;93.10
61255;DHT22;47128;47.530;8.584;2023-05-19T17:11:12;15.90;92.80
61255;DHT22;47128;47.530;8.584;2023-05-19T17:13:38;15.80;92.60
61255;DHT22;47128;47.530;8.584;2023-05-19T17:16:03;15.80;93.00
61255;DHT22;47128;47.530;8.584;2023-05-19T17:18:29;15.70;92.80
61255;DHT22;47128;47.530;8.584;2023-05-19T17:20:55;15.70;92.90
61255;DHT22;47128;47.530;8.584;2023-05-19T17:26:23;15.60;93.00
61255;DHT22;47128;47.530;8.584;2023-05-19T17:28:49;15.50;92.90
61255;DHT22;47128;47.530;8.584;2023-05-19T17:31:14;15.40;93.40
61255;DHT22;47128;47.530;8.584;2023-05-19T17:33:40;15.40;93.30
61255;DHT22;47128;47.530;8.584;2023-05-19T17:36:15;15.40;93.40
61255;DHT22;47128;47.530;8.584;2023-05-19T17:38:40;15.40;93.00
61255;DHT22;47128;47.530;8.584;2023-05-19T17:41:13;15.30;93.00
61255;DHT22;47128;47.530;8.584;2023-05-19T17:43:39;15.30;93.20
61255;DHT22;47128;47.530;8.584;2023-05-19T17:46:07;15.30;93.00
61255;DHT22;47128;47.530;8.584;2023-05-19T17:48:32;15.30;93.00
61255;DHT22;47128;47.530;8.584;2023-05-19T17:50:58;15.30;93.00